sensor_id;sensor_type;location;lat;lon;timestamp;pressure;altitude;pressure_sealevel;temperature;humidity
61740;BME280;47645;45.288;12.038;2022-11-15T00:04:48;1019.5829796140571;;;10.5443359375;90.22941280980028
61740;BME280;47645;45.288;12.038;2022-11-15T00:14:48;1019.4573028340598;;;10.426953125;90.28237001216009
61740;BME280;47645;45.288;12.038;2022-11-15T00:24:49;1019.3423131552596;;;10.3455078125;90.6540454778309
61740;BME280;47645;45.288;12.038;2022-11-15T00:34:50;1019.4087211085442;;;10.095703125;91.81207577909977
61740;BME280;47645;45.288;12.038;2022-11-15T00:44:50;1019.3260836696865;;;9.978515625;92.42758522954976
61740;BME280;47645;45.288;12.038;2022-11-15T00:54:51;1019.2945833087671;;;9.9326171875;92.1176423916709
61740;BME280;47645;45.288;12.038;2022-11-15T01:04:51;1019.1395909633881;;;9.9173828125;91.82194063722116
61740;BME280;47645;45.288;12.038;2022-11-15T01:14:52;1019.2648996172408;;;9.8765625;91.82304578769582
61740;BME280;47645;45.288;12.038;2022-11-15T01:24:53;1019.2301126573554;;;9.6216796875;93.15996995056932
61740;BME280;47645;45.288;12.038;2022-11-15T01:34:53;1019.2719959612606;;;9.6931640625;92.75473527504184
61740;BME280;47645;45.288;12.038;2022-11-15T01:44:55;1019.2268136981203;;;9.647265625;92.65096375422553
61740;BME280;47645;45.288;12.038;2022-11-15T01:55:00;1019.1068183649342;;;9.6982421875;92.34103305794893
61740;BME280;47645;45.288;12.038;2022-11-15T02:04:55;1018.9890498974717;;;9.4484375;93.22132979586131
61740;BME280;47645;45.288;12.038;2022-11-15T02:14:56;1018.8549265225021;;;9.4892578125;92.30454261183057
61740;BME280;47645;45.288;12.038;2022-11-15T02:25:03;1018.8643661604847;;;9.5912109375;91.29682081787064
61740;BME280;47645;45.288;12.038;2022-11-15T02:35:02;1018.6562888655407;;;9.4076171875;91.50717090701714
61740;BME280;47645;45.288;12.038;2022-11-15T02:45:00;1018.5854382514403;;;9.4025390625;91.3018918772965
61740;BME280;47645;45.288;12.038;2022-11-15T02:54:59;1018.4772330740334;;;9.41796875;90.8674569368355
61740;BME280;47645;45.288;12.038;2022-11-15T03:05:02;1018.4353156317025;;;9.3515625;91.06832370529166
61740;BME280;47645;45.288;12.038;2022-11-15T03:15:04;1018.5495400499891;;;9.2599609375;91.6316785425278
61740;BME280;47645;45.288;12.038;2022-11-15T03:25:02;1018.4855700921288;;;9.1732421875;91.90264568834615
61740;BME280;47645;45.288;12.038;2022-11-15T03:35:02;1018.4687822775384;;;9.1580078125;92.04763395983163
61740;BME280;47645;45.288;12.038;2022-11-15T03:45:06;1018.5550976245972;;;9.1529296875;91.96983783129103
61740;BME280;47645;45.288;12.038;2022-11-15T03:55:03;1018.4908507868006;;;9.1630859375;92.22458238197166
61740;BME280;47645;45.288;12.038;2022-11-15T04:05:02;1018.4002279366031;;;9.234375;91.36269475277793
61740;BME280;47645;45.288;12.038;2022-11-15T04:15:12;1018.4458193936943;;;9.0458984375;93.46555762287599
61740;BME280;47645;45.288;12.038;2022-11-15T04:25:03;1018.423293607603;;;9.20390625;92.36383281248087
61740;BME280;47645;45.288;12.038;2022-11-15T04:35:04;1018.4791937075438;;;9.1732421875;92.56385034469882
61740;BME280;47645;45.288;12.038;2022-11-15T04:45:04;1018.4382981998441;;;8.903125;94.6917431287764
61740;BME280;47645;45.288;12.038;2022-11-15T04:50:05;1018.5127036949581;;;9.1427734375;93.04898166408522
61740;BME280;47645;45.288;12.038;2022-11-15T05:00:07;1018.3972450972237;;;9.1529296875;92.09848916738083
61740;BME280;47645;45.288;12.038;2022-11-15T05:10:06;1018.3642858299695;;;9.2904296875;91.99987573404754
61740;BME280;47645;45.288;12.038;2022-11-15T05:20:07;1018.2062555451762;;;9.2751953125;90.99345469770829
61740;BME280;47645;45.288;12.038;2022-11-15T05:30:07;1018.1871222587906;;;9.336328125;90.355708997592
61740;BME280;47645;45.288;12.038;2022-11-15T05:40:08;1018.1869850322238;;;9.3669921875;90.15530197011142
61740;BME280;47645;45.288;12.038;2022-11-15T05:50:11;1018.2708358833902;;;9.3515625;90.36244855465304
61740;BME280;47645;45.288;12.038;2022-11-15T06:00:10;1018.2380560755577;;;9.32109375;90.6737227509976
61740;BME280;47645;45.288;12.038;2022-11-15T06:10:09;1018.423293607603;;;9.19375;91.3105910932582
61740;BME280;47645;45.288;12.038;2022-11-15T06:20:10;1018.3764715316989;;;9.2140625;90.97496782697114
61740;BME280;47645;45.288;12.038;2022-11-15T06:30:10;1018.4389866576261;;;9.20390625;90.97370443153955
61740;BME280;47645;45.288;12.038;2022-11-15T06:40:11;1018.4331965929073;;;9.101953125;91.44747647023513
61740;BME280;47645;45.288;12.038;2022-11-15T06:50:11;1018.5973757730629;;;9.20390625;91.03560504267182
61740;BME280;47645;45.288;12.038;2022-11-15T07:00:12;1018.6912699003728;;;9.19375;91.76739413279292
61740;BME280;47645;45.288;12.038;2022-11-15T07:10:12;1018.6796610510796;;;9.19375;91.73920997562806
61740;BME280;47645;45.288;12.038;2022-11-15T07:20:14;1018.6072656696161;;;9.091796875;93.63727443692133
61740;BME280;47645;45.288;12.038;2022-11-15T07:30:13;1018.5364116296656;;;9.3669921875;92.1115824722477
61740;BME280;47645;45.288;12.038;2022-11-15T07:40:13;1018.6858625209039;;;9.346484375;92.31426741482183
61740;BME280;47645;45.288;12.038;2022-11-15T07:50:14;1018.683054340042;;;9.412890625;91.84777794276553
61740;BME280;47645;45.288;12.038;2022-11-15T08:00:15;1018.6313893377924;;;9.4484375;92.38956196686101
61740;BME280;47645;45.288;12.038;2022-11-15T08:10:17;1018.5070615429389;;;9.647265625;90.53175904957531
61740;BME280;47645;45.288;12.038;2022-11-15T08:20:16;1018.5588779060782;;;9.637109375;91.31283262043846
61740;BME280;47645;45.288;12.038;2022-11-15T08:30:16;1018.5857091388083;;;9.305859375;95.5600099021677
61740;BME280;47645;45.288;12.038;2022-11-15T08:40:18;1018.5468544684958;;;9.2853515625;96.49113486776419
61740;BME280;47645;45.288;12.038;2022-11-15T08:50:18;1018.5491628716077;;;9.7236328125;92.94610833698538
61740;BME280;47645;45.288;12.038;2022-11-15T09:00:20;1018.5409350686838;;;9.784765625;91.14452739689641
61740;BME280;47645;45.288;12.038;2022-11-15T09:10:19;1018.485818209019;;;9.968359375;89.75793621999306
61740;BME280;47645;45.288;12.038;2022-11-15T09:20:19;1018.3137836943779;;;10.0703125;88.92453568703229
61740;BME280;47645;45.288;12.038;2022-11-15T09:30:20;1018.4599429660134;;;10.3353515625;89.15453491438419
61740;BME280;47645;45.288;12.038;2022-11-15T09:40:23;1018.3187872245772;;;10.4423828125;89.02878599082916
61740;BME280;47645;45.288;12.038;2022-11-15T09:50:31;1018.2521607565776;;;10.4984375;88.69351903521824
61740;BME280;47645;45.288;12.038;2022-11-15T10:00:25;1018.2335492405457;;;10.6666015625;88.3459322425599
61740;BME280;47645;45.288;12.038;2022-11-15T10:10:29;1018.1831846676733;;;10.855078125;85.58758147862753
61740;BME280;47645;45.288;12.038;2022-11-15T10:20:27;1018.0576983798098;;;11.0947265625;85.86814415375486
61740;BME280;47645;45.288;12.038;2022-11-15T10:30:32;1017.7861882410685;;;11.4259765625;83.5500251759014
61740;BME280;47645;45.288;12.038;2022-11-15T10:40:25;1017.6557535205019;;;11.166015625;85.99238827396759
61740;BME280;47645;45.288;12.038;2022-11-15T10:50:29;1017.5647165445178;;;11.487109375;84.17225570320785
61740;BME280;47645;45.288;12.038;2022-11-15T11:00:30;1017.4576628175683;;;11.6197265625;84.89814437621612
61740;BME280;47645;45.288;12.038;2022-11-15T11:10:28;1017.2318644307504;;;11.6298828125;83.58887385271893
61740;BME280;47645;45.288;12.038;2022-11-15T11:20:32;1017.0251516794501;;;11.665625;82.64178391140594
61740;BME280;47645;45.288;12.038;2022-11-15T11:30:38;1016.9776849006807;;;11.798046875;87.6544235919833
61740;BME280;47645;45.288;12.038;2022-11-15T11:40:32;1016.8400804350649;;;11.925390625;85.27635514674428
61740;BME280;47645;45.288;12.038;2022-11-15T11:50:31;1016.7113827750115;;;11.884765625;86.23252794558427
61740;BME280;47645;45.288;12.038;2022-11-15T12:00:39;1016.586168263282;;;11.803125;86.51182880333462
61740;BME280;47645;45.288;12.038;2022-11-15T12:10:33;1016.4460604516555;;;11.91015625;84.9085017665421
61740;BME280;47645;45.288;12.038;2022-11-15T12:20:36;1016.3313952164488;;;11.884765625;88.64734551735522
61740;BME280;47645;45.288;12.038;2022-11-15T12:30:43;1016.1653013583012;;;11.79296875;85.83873352205997
61740;BME280;47645;45.288;12.038;2022-11-15T12:40:36;1015.9414129087692;;;11.69609375;90.19049538084434
61740;BME280;47645;45.288;12.038;2022-11-15T12:51:07;1015.8598501097057;;;11.8642578125;85.82926026613262
61740;BME280;47645;45.288;12.038;2022-11-15T13:00:37;1015.6475394599419;;;12.0630859375;85.95808433509664
61740;BME280;47645;45.288;12.038;2022-11-15T13:10:36;1015.5247055284218;;;12.1140625;89.28571916726578
61740;BME280;47645;45.288;12.038;2022-11-15T13:20:36;1015.5064259501243;;;12.0884765625;85.04205729093346
61740;BME280;47645;45.288;12.038;2022-11-15T13:30:40;1015.5414198680128;;;12.246484375;82.7902141606896
61740;BME280;47645;45.288;12.038;2022-11-15T13:40:40;1015.5466760189084;;;12.2515625;84.99270682367865
61740;BME280;47645;45.288;12.038;2022-11-15T13:50:40;1015.5293441893544;;;12.1498046875;83.49248277905747
61740;BME280;47645;45.288;12.038;2022-11-15T14:00:41;1015.4809132176315;;;12.12421875;84.01771473871541
61740;BME280;47645;45.288;12.038;2022-11-15T14:10:40;1015.3596010862076;;;12.0681640625;83.9451402594256
61740;BME280;47645;45.288;12.038;2022-11-15T14:20:40;1015.2204059789242;;;12.022265625;84.41240827230371
61740;BME280;47645;45.288;12.038;2022-11-15T14:30:42;1015.218654612192;;;12.022265625;85.26287884591365
61740;BME280;47645;45.288;12.038;2022-11-15T14:40:46;1015.1138098631468;;;11.9662109375;85.761988228273
61740;BME280;47645;45.288;12.038;2022-11-15T14:50:44;1015.0359161817491;;;11.8744140625;85.09864002452326
61740;BME280;47645;45.288;12.038;2022-11-15T15:00:46;1014.9174606725496;;;11.8439453125;85.32208489734876
61740;BME280;47645;45.288;12.038;2022-11-15T15:10:45;1014.802509681511;;;11.803125;85.77984163415546
61740;BME280;47645;45.288;12.038;2022-11-15T15:20:51;1014.6311672832115;;;11.7419921875;86.29965193515699
61740;BME280;47645;45.288;12.038;2022-11-15T15:30:45;1014.5517522052563;;;11.609375;88.02765263036984
61740;BME280;47645;45.288;12.038;2022-11-15T15:40:47;1014.4830129289618;;;11.563671875;87.7783334994225
61740;BME280;47645;45.288;12.038;2022-11-15T15:50:48;1014.4665912605149;;;11.57890625;87.17086798995791
61740;BME280;47645;45.288;12.038;2022-11-15T16:00:48;1014.4773774516948;;;11.56875;87.12859758426724
61740;BME280;47645;45.288;12.038;2022-11-15T16:10:49;1014.5078103545372;;;11.5431640625;87.2439857190557
61740;BME280;47645;45.288;12.038;2022-11-15T16:20:50;1014.4501348919098;;;11.456640625;89.828894856449
61740;BME280;47645;45.288;12.038;2022-11-15T16:30:59;1014.5011908822522;;;11.3341796875;89.42773094672026
61740;BME280;47645;45.288;12.038;2022-11-15T16:40:50;1014.4327016661962;;;11.369921875;93.80036435000194
61740;BME280;47645;45.288;12.038;2022-11-15T16:50:54;1014.3942118588969;;;11.36484375;89.3321436099512
61740;BME280;47645;45.288;12.038;2022-11-15T17:00:53;1014.3883863678951;;;11.38515625;88.53444485533981
61740;BME280;47645;45.288;12.038;2022-11-15T17:10:54;1014.3908398123499;;;11.2986328125;90.02635443950919
61740;BME280;47645;45.288;12.038;2022-11-15T17:20:52;1014.3505970909818;;;11.1966796875;96.31222965549769
61740;BME280;47645;45.288;12.038;2022-11-15T17:30:53;1014.1809382929288;;;11.2017578125;96.51261914807864
61740;BME280;47645;45.288;12.038;2022-11-15T17:41:02;1014.114215434627;;;11.2375;89.92432924195695
61740;BME280;47645;45.288;12.038;2022-11-15T17:50:55;1013.9951704634611;;;11.2119140625;100
61740;BME280;47645;45.288;12.038;2022-11-15T18:00:55;1013.7293420804986;;;11.0896484375;100
61740;BME280;47645;45.288;12.038;2022-11-15T18:11:04;1013.6474970376578;;;10.74296875;100
61740;BME280;47645;45.288;12.038;2022-11-15T18:21:01;1013.518604749372;;;10.7685546875;100
61740;BME280;47645;45.288;12.038;2022-11-15T18:30:56;1013.4002459092718;;;10.5646484375;100
61740;BME280;47645;45.288;12.038;2022-11-15T18:41:03;1013.3384212878561;;;10.5798828125;100
61740;BME280;47645;45.288;12.038;2022-11-15T18:51:02;1013.3235808412666;;;10.5494140625;100
61740;BME280;47645;45.288;12.038;2022-11-15T19:01:01;1013.161093229119;;;10.5443359375;100
61740;BME280;47645;45.288;12.038;2022-11-15T19:11:02;1013.0289387094136;;;10.386328125;100
61740;BME280;47645;45.288;12.038;2022-11-15T19:21:01;1012.9506527178717;;;10.5900390625;100
61740;BME280;47645;45.288;12.038;2022-11-15T19:31:03;1012.8414984606602;;;10.7583984375;100
61740;BME280;47645;45.288;12.038;2022-11-15T19:41:02;1012.8019957950788;;;10.6564453125;100
61740;BME280;47645;45.288;12.038;2022-11-15T19:51:02;1012.7701267127849;;;10.5494140625;100
61740;BME280;47645;45.288;12.038;2022-11-15T20:01:05;1012.6532223077057;;;10.503515625;100
61740;BME280;47645;45.288;12.038;2022-11-15T20:11:04;1012.695261254615;;;10.4474609375;100
61740;BME280;47645;45.288;12.038;2022-11-15T20:21:05;1012.6016645315447;;;10.38125;100
61740;BME280;47645;45.288;12.038;2022-11-15T20:31:05;1012.5292697960721;;;10.4373046875;100
61740;BME280;47645;45.288;12.038;2022-11-15T20:41:05;1012.4363249174123;;;10.284375;100
61740;BME280;47645;45.288;12.038;2022-11-15T20:51:08;1012.3550891381678;;;10.3251953125;100
61740;BME280;47645;45.288;12.038;2022-11-15T21:01:07;1012.1738185522644;;;10.090625;100
61740;BME280;47645;45.288;12.038;2022-11-15T21:12:12;1012.13624732798;;;9.85625;100
61740;BME280;47645;45.288;12.038;2022-11-15T21:21:08;1011.9521258454291;;;10.0193359375;100
61740;BME280;47645;45.288;12.038;2022-11-15T21:31:07;1011.993464434872;;;9.9734375;100
61740;BME280;47645;45.288;12.038;2022-11-15T21:41:08;1011.8970009847446;;;9.958203125;100
61740;BME280;47645;45.288;12.038;2022-11-15T21:51:09;1011.6734383213811;;;9.9376953125;100
61740;BME280;47645;45.288;12.038;2022-11-15T22:02:14;1011.5061032936096;;;9.891796875;100
61740;BME280;47645;45.288;12.038;2022-11-15T22:11:10;1011.4615737313117;;;9.9326171875;100
61740;BME280;47645;45.288;12.038;2022-11-15T22:21:13;1011.3132522144122;;;10.0294921875;100
61740;BME280;47645;45.288;12.038;2022-11-15T22:31:11;1011.2027105221565;;;10.075390625;100
61740;BME280;47645;45.288;12.038;2022-11-15T22:41:12;1011.0976274422778;;;10.1671875;100
61740;BME280;47645;45.288;12.038;2022-11-15T22:51:12;1010.8369792653496;;;9.9072265625;100
61740;BME280;47645;45.288;12.038;2022-11-15T23:01:18;1010.5456312046662;;;10.075390625;100
61740;BME280;47645;45.288;12.038;2022-11-15T23:21:16;1010.3425814401307;;;9.978515625;100
61740;BME280;47645;45.288;12.038;2022-11-15T23:41:15;1010.0915815547612;;;10.2078125;100
61740;BME280;47645;45.288;12.038;2022-11-15T23:51:16;1009.8740361503853;;;9.958203125;100
